sensor_id;sensor_type;location;lat;lon;timestamp;P1;durP1;ratioP1;P2;durP2;ratioP2
56239;SDS011;42154;51.992;5.896;2022-12-29T00:01:33;5.10;;;3.10;;
56239;SDS011;42154;51.992;5.896;2022-12-29T00:04:00;3.35;;;2.78;;
56239;SDS011;42154;51.992;5.896;2022-12-29T00:06:26;3.40;;;2.88;;
56239;SDS011;42154;51.992;5.896;2022-12-29T00:08:52;3.83;;;3.00;;
56239;SDS011;42154;51.992;5.896;2022-12-29T00:11:22;4.38;;;2.78;;
56239;SDS011;42154;51.992;5.896;2022-12-29T00:13:50;4.35;;;2.95;;
56239;SDS011;42154;51.992;5.896;2022-12-29T00:16:34;2.55;;;2.17;;
56239;SDS011;42154;51.992;5.896;2022-12-29T00:19:01;2.90;;;2.60;;
56239;SDS011;42154;51.992;5.896;2022-12-29T00:21:28;3.15;;;2.38;;
56239;SDS011;42154;51.992;5.896;2022-12-29T00:24:16;3.08;;;2.78;;
56239;SDS011;42154;51.992;5.896;2022-12-29T00:26:53;3.08;;;2.25;;
56239;SDS011;42154;51.992;5.896;2022-12-29T00:29:57;3.72;;;2.75;;
56239;SDS011;42154;51.992;5.896;2022-12-29T00:32:42;4.95;;;2.53;;
56239;SDS011;42154;51.992;5.896;2022-12-29T00:37:54;3.90;;;3.20;;
56239;SDS011;42154;51.992;5.896;2022-12-29T00:40:40;2.67;;;2.28;;
56239;SDS011;42154;51.992;5.896;2022-12-29T00:43:25;3.90;;;2.28;;
56239;SDS011;42154;51.992;5.896;2022-12-29T00:46:10;2.55;;;2.30;;
56239;SDS011;42154;51.992;5.896;2022-12-29T00:48:35;2.55;;;2.28;;
56239;SDS011;42154;51.992;5.896;2022-12-29T00:51:20;3.63;;;2.45;;
56239;SDS011;42154;51.992;5.896;2022-12-29T00:53:46;2.55;;;2.20;;
56239;SDS011;42154;51.992;5.896;2022-12-29T00:56:11;2.63;;;2.20;;
56239;SDS011;42154;51.992;5.896;2022-12-29T00:58:37;2.70;;;2.13;;
56239;SDS011;42154;51.992;5.896;2022-12-29T01:01:03;4.15;;;2.33;;
56239;SDS011;42154;51.992;5.896;2022-12-29T01:03:31;4.07;;;2.40;;
56239;SDS011;42154;51.992;5.896;2022-12-29T01:06:02;3.58;;;2.50;;
56239;SDS011;42154;51.992;5.896;2022-12-29T01:08:30;2.42;;;2.08;;
56239;SDS011;42154;51.992;5.896;2022-12-29T01:10:59;3.85;;;2.13;;
56239;SDS011;42154;51.992;5.896;2022-12-29T01:13:26;3.55;;;1.90;;
56239;SDS011;42154;51.992;5.896;2022-12-29T01:15:53;1.67;;;1.58;;
56239;SDS011;42154;51.992;5.896;2022-12-29T01:18:19;4.10;;;1.65;;
56239;SDS011;42154;51.992;5.896;2022-12-29T01:20:45;2.25;;;1.58;;
56239;SDS011;42154;51.992;5.896;2022-12-29T01:23:11;2.45;;;1.40;;
56239;SDS011;42154;51.992;5.896;2022-12-29T01:25:37;1.50;;;1.10;;
56239;SDS011;42154;51.992;5.896;2022-12-29T01:28:03;2.03;;;1.30;;
56239;SDS011;42154;51.992;5.896;2022-12-29T01:30:29;1.80;;;0.90;;
56239;SDS011;42154;51.992;5.896;2022-12-29T01:32:55;1.98;;;0.80;;
56239;SDS011;42154;51.992;5.896;2022-12-29T01:35:21;2.58;;;0.90;;
56239;SDS011;42154;51.992;5.896;2022-12-29T01:37:46;2.58;;;0.98;;
56239;SDS011;42154;51.992;5.896;2022-12-29T01:40:13;2.08;;;0.80;;
56239;SDS011;42154;51.992;5.896;2022-12-29T01:42:39;1.60;;;0.80;;
56239;SDS011;42154;51.992;5.896;2022-12-29T01:45:11;2.25;;;1.05;;
56239;SDS011;42154;51.992;5.896;2022-12-29T01:50:22;1.17;;;0.63;;
56239;SDS011;42154;51.992;5.896;2022-12-29T01:53:04;1.75;;;1.00;;
56239;SDS011;42154;51.992;5.896;2022-12-29T01:55:43;1.55;;;1.00;;
56239;SDS011;42154;51.992;5.896;2022-12-29T01:58:22;3.47;;;1.13;;
56239;SDS011;42154;51.992;5.896;2022-12-29T02:00:53;1.75;;;0.95;;
56239;SDS011;42154;51.992;5.896;2022-12-29T02:03:19;2.65;;;1.50;;
56239;SDS011;42154;51.992;5.896;2022-12-29T02:08:36;1.27;;;1.10;;
56239;SDS011;42154;51.992;5.896;2022-12-29T02:11:04;1.88;;;1.40;;
56239;SDS011;42154;51.992;5.896;2022-12-29T02:13:32;3.13;;;1.60;;
56239;SDS011;42154;51.992;5.896;2022-12-29T02:21:41;1.58;;;1.35;;
56239;SDS011;42154;51.992;5.896;2022-12-29T02:24:15;2.28;;;1.38;;
56239;SDS011;42154;51.992;5.896;2022-12-29T02:35:29;2.55;;;1.00;;
56239;SDS011;42154;51.992;5.896;2022-12-29T02:46:36;1.65;;;1.35;;
56239;SDS011;42154;51.992;5.896;2022-12-29T02:52:22;2.65;;;1.20;;
56239;SDS011;42154;51.992;5.896;2022-12-29T02:54:54;2.40;;;1.35;;
56239;SDS011;42154;51.992;5.896;2022-12-29T02:59:47;1.00;;;0.88;;
56239;SDS011;42154;51.992;5.896;2022-12-29T03:13:13;3.65;;;1.00;;
56239;SDS011;42154;51.992;5.896;2022-12-29T03:16:11;1.90;;;0.60;;
56239;SDS011;42154;51.992;5.896;2022-12-29T03:24:17;2.75;;;0.77;;
56239;SDS011;42154;51.992;5.896;2022-12-29T03:26:46;4.13;;;0.68;;
56239;SDS011;42154;51.992;5.896;2022-12-29T03:29:15;4.15;;;0.90;;
56239;SDS011;42154;51.992;5.896;2022-12-29T03:31:44;2.25;;;0.70;;
56239;SDS011;42154;51.992;5.896;2022-12-29T03:34:13;1.70;;;0.63;;
56239;SDS011;42154;51.992;5.896;2022-12-29T03:36:44;1.65;;;0.68;;
56239;SDS011;42154;51.992;5.896;2022-12-29T03:39:16;4.22;;;0.80;;
56239;SDS011;42154;51.992;5.896;2022-12-29T03:41:44;1.80;;;0.70;;
56239;SDS011;42154;51.992;5.896;2022-12-29T03:44:12;5.53;;;1.58;;
56239;SDS011;42154;51.992;5.896;2022-12-29T03:46:38;3.53;;;0.70;;
56239;SDS011;42154;51.992;5.896;2022-12-29T03:49:04;2.55;;;0.80;;
56239;SDS011;42154;51.992;5.896;2022-12-29T03:51:30;1.85;;;0.60;;
56239;SDS011;42154;51.992;5.896;2022-12-29T03:53:56;3.90;;;0.90;;
56239;SDS011;42154;51.992;5.896;2022-12-29T03:56:22;1.40;;;0.60;;
56239;SDS011;42154;51.992;5.896;2022-12-29T03:58:48;3.42;;;0.90;;
56239;SDS011;42154;51.992;5.896;2022-12-29T04:03:45;2.83;;;0.70;;
56239;SDS011;42154;51.992;5.896;2022-12-29T04:06:11;3.38;;;0.80;;
56239;SDS011;42154;51.992;5.896;2022-12-29T04:08:44;2.20;;;0.75;;
56239;SDS011;42154;51.992;5.896;2022-12-29T04:11:10;1.75;;;0.57;;
56239;SDS011;42154;51.992;5.896;2022-12-29T04:13:36;2.78;;;0.60;;
56239;SDS011;42154;51.992;5.896;2022-12-29T04:16:06;1.35;;;0.60;;
56239;SDS011;42154;51.992;5.896;2022-12-29T04:18:34;4.00;;;1.13;;
56239;SDS011;42154;51.992;5.896;2022-12-29T04:21:00;2.95;;;0.70;;
56239;SDS011;42154;51.992;5.896;2022-12-29T04:23:27;6.45;;;0.77;;
56239;SDS011;42154;51.992;5.896;2022-12-29T04:25:53;2.83;;;0.70;;
56239;SDS011;42154;51.992;5.896;2022-12-29T04:28:19;1.55;;;0.52;;
56239;SDS011;42154;51.992;5.896;2022-12-29T04:31:04;1.65;;;0.65;;
56239;SDS011;42154;51.992;5.896;2022-12-29T04:33:35;4.10;;;0.70;;
56239;SDS011;42154;51.992;5.896;2022-12-29T04:36:01;3.10;;;0.93;;
56239;SDS011;42154;51.992;5.896;2022-12-29T04:38:28;2.75;;;0.80;;
56239;SDS011;42154;51.992;5.896;2022-12-29T04:40:54;1.48;;;0.60;;
56239;SDS011;42154;51.992;5.896;2022-12-29T04:43:24;1.63;;;0.80;;
56239;SDS011;42154;51.992;5.896;2022-12-29T04:46:08;2.05;;;0.50;;
56239;SDS011;42154;51.992;5.896;2022-12-29T04:48:52;4.57;;;1.00;;
56239;SDS011;42154;51.992;5.896;2022-12-29T04:51:27;2.72;;;1.00;;
56239;SDS011;42154;51.992;5.896;2022-12-29T04:53:53;3.33;;;0.88;;
56239;SDS011;42154;51.992;5.896;2022-12-29T04:56:18;3.00;;;0.90;;
56239;SDS011;42154;51.992;5.896;2022-12-29T04:58:44;4.45;;;1.00;;
56239;SDS011;42154;51.992;5.896;2022-12-29T05:01:12;4.18;;;0.90;;
56239;SDS011;42154;51.992;5.896;2022-12-29T05:03:38;4.70;;;1.52;;
56239;SDS011;42154;51.992;5.896;2022-12-29T05:06:04;2.05;;;0.52;;
56239;SDS011;42154;51.992;5.896;2022-12-29T05:08:30;6.03;;;1.20;;
56239;SDS011;42154;51.992;5.896;2022-12-29T05:10:58;3.92;;;0.73;;
56239;SDS011;42154;51.992;5.896;2022-12-29T05:13:25;3.60;;;1.00;;
56239;SDS011;42154;51.992;5.896;2022-12-29T05:15:51;4.22;;;0.88;;
56239;SDS011;42154;51.992;5.896;2022-12-29T05:18:18;3.83;;;0.93;;
56239;SDS011;42154;51.992;5.896;2022-12-29T05:20:44;3.38;;;0.80;;
56239;SDS011;42154;51.992;5.896;2022-12-29T05:23:11;5.90;;;1.10;;
56239;SDS011;42154;51.992;5.896;2022-12-29T05:25:38;5.97;;;0.80;;
56239;SDS011;42154;51.992;5.896;2022-12-29T05:28:15;4.88;;;0.85;;
56239;SDS011;42154;51.992;5.896;2022-12-29T05:30:47;2.05;;;0.70;;
56239;SDS011;42154;51.992;5.896;2022-12-29T05:33:14;3.67;;;0.80;;
56239;SDS011;42154;51.992;5.896;2022-12-29T05:35:40;3.28;;;0.98;;
56239;SDS011;42154;51.992;5.896;2022-12-29T05:38:06;2.95;;;0.82;;
56239;SDS011;42154;51.992;5.896;2022-12-29T05:40:32;3.42;;;1.10;;
56239;SDS011;42154;51.992;5.896;2022-12-29T05:43:02;4.05;;;0.93;;
56239;SDS011;42154;51.992;5.896;2022-12-29T05:45:39;3.90;;;0.95;;
56239;SDS011;42154;51.992;5.896;2022-12-29T05:48:23;2.25;;;0.80;;
56239;SDS011;42154;51.992;5.896;2022-12-29T05:51:09;4.20;;;1.25;;
56239;SDS011;42154;51.992;5.896;2022-12-29T05:53:49;3.50;;;1.30;;
56239;SDS011;42154;51.992;5.896;2022-12-29T05:56:16;2.88;;;0.70;;
56239;SDS011;42154;51.992;5.896;2022-12-29T05:58:42;2.75;;;0.88;;
56239;SDS011;42154;51.992;5.896;2022-12-29T06:01:08;4.18;;;0.90;;
56239;SDS011;42154;51.992;5.896;2022-12-29T06:03:34;3.55;;;0.90;;
56239;SDS011;42154;51.992;5.896;2022-12-29T06:05:59;5.55;;;0.90;;
56239;SDS011;42154;51.992;5.896;2022-12-29T06:08:26;5.55;;;1.10;;
56239;SDS011;42154;51.992;5.896;2022-12-29T06:10:52;5.18;;;1.10;;
56239;SDS011;42154;51.992;5.896;2022-12-29T06:13:17;5.75;;;1.60;;
56239;SDS011;42154;51.992;5.896;2022-12-29T06:15:50;3.47;;;0.90;;
56239;SDS011;42154;51.992;5.896;2022-12-29T06:18:17;6.67;;;1.43;;
56239;SDS011;42154;51.992;5.896;2022-12-29T06:20:43;6.32;;;1.08;;
56239;SDS011;42154;51.992;5.896;2022-12-29T06:23:09;8.05;;;1.35;;
56239;SDS011;42154;51.992;5.896;2022-12-29T06:25:37;6.88;;;1.30;;
56239;SDS011;42154;51.992;5.896;2022-12-29T06:28:02;4.85;;;1.00;;
56239;SDS011;42154;51.992;5.896;2022-12-29T06:30:30;7.18;;;1.48;;
56239;SDS011;42154;51.992;5.896;2022-12-29T06:32:58;4.22;;;1.05;;
56239;SDS011;42154;51.992;5.896;2022-12-29T06:35:24;5.95;;;1.33;;
56239;SDS011;42154;51.992;5.896;2022-12-29T06:37:50;8.88;;;1.38;;
56239;SDS011;42154;51.992;5.896;2022-12-29T06:40:16;5.90;;;1.00;;
56239;SDS011;42154;51.992;5.896;2022-12-29T06:42:59;5.13;;;1.08;;
56239;SDS011;42154;51.992;5.896;2022-12-29T06:45:48;6.43;;;1.33;;
56239;SDS011;42154;51.992;5.896;2022-12-29T06:48:14;5.60;;;1.27;;
56239;SDS011;42154;51.992;5.896;2022-12-29T06:50:39;4.88;;;1.20;;
56239;SDS011;42154;51.992;5.896;2022-12-29T06:53:05;6.35;;;1.60;;
56239;SDS011;42154;51.992;5.896;2022-12-29T06:55:31;6.40;;;1.40;;
56239;SDS011;42154;51.992;5.896;2022-12-29T06:57:58;5.07;;;0.70;;
56239;SDS011;42154;51.992;5.896;2022-12-29T07:00:24;4.85;;;1.27;;
56239;SDS011;42154;51.992;5.896;2022-12-29T07:02:50;5.53;;;1.17;;
56239;SDS011;42154;51.992;5.896;2022-12-29T07:05:17;5.25;;;1.02;;
56239;SDS011;42154;51.992;5.896;2022-12-29T07:07:43;4.13;;;1.23;;
56239;SDS011;42154;51.992;5.896;2022-12-29T07:10:09;4.50;;;1.30;;
56239;SDS011;42154;51.992;5.896;2022-12-29T07:12:34;3.78;;;0.93;;
56239;SDS011;42154;51.992;5.896;2022-12-29T07:15:00;5.35;;;0.80;;
56239;SDS011;42154;51.992;5.896;2022-12-29T07:17:26;6.35;;;1.02;;
56239;SDS011;42154;51.992;5.896;2022-12-29T07:19:51;3.30;;;0.98;;
56239;SDS011;42154;51.992;5.896;2022-12-29T07:22:17;6.47;;;1.30;;
56239;SDS011;42154;51.992;5.896;2022-12-29T07:24:43;4.70;;;1.00;;
56239;SDS011;42154;51.992;5.896;2022-12-29T07:27:08;3.75;;;1.35;;
56239;SDS011;42154;51.992;5.896;2022-12-29T07:29:36;6.25;;;1.08;;
56239;SDS011;42154;51.992;5.896;2022-12-29T07:32:03;5.25;;;1.00;;
56239;SDS011;42154;51.992;5.896;2022-12-29T07:34:29;3.75;;;0.93;;
56239;SDS011;42154;51.992;5.896;2022-12-29T07:36:55;5.93;;;1.20;;
56239;SDS011;42154;51.992;5.896;2022-12-29T07:39:21;2.95;;;0.85;;
56239;SDS011;42154;51.992;5.896;2022-12-29T07:41:47;6.63;;;1.00;;
56239;SDS011;42154;51.992;5.896;2022-12-29T07:44:16;7.40;;;1.20;;
56239;SDS011;42154;51.992;5.896;2022-12-29T07:47:11;6.78;;;1.20;;
56239;SDS011;42154;51.992;5.896;2022-12-29T07:49:36;5.90;;;1.13;;
56239;SDS011;42154;51.992;5.896;2022-12-29T07:52:02;5.38;;;1.75;;
56239;SDS011;42154;51.992;5.896;2022-12-29T07:54:28;7.88;;;1.30;;
56239;SDS011;42154;51.992;5.896;2022-12-29T07:56:54;4.93;;;1.17;;
56239;SDS011;42154;51.992;5.896;2022-12-29T07:59:20;4.60;;;1.13;;
56239;SDS011;42154;51.992;5.896;2022-12-29T08:01:45;7.78;;;1.20;;
56239;SDS011;42154;51.992;5.896;2022-12-29T08:04:11;5.78;;;1.20;;
56239;SDS011;42154;51.992;5.896;2022-12-29T08:06:37;7.03;;;1.23;;
56239;SDS011;42154;51.992;5.896;2022-12-29T08:09:03;6.70;;;1.30;;
56239;SDS011;42154;51.992;5.896;2022-12-29T08:11:29;7.10;;;1.48;;
56239;SDS011;42154;51.992;5.896;2022-12-29T08:13:54;6.25;;;1.38;;
56239;SDS011;42154;51.992;5.896;2022-12-29T08:16:20;7.80;;;1.92;;
56239;SDS011;42154;51.992;5.896;2022-12-29T08:18:46;6.40;;;1.40;;
56239;SDS011;42154;51.992;5.896;2022-12-29T08:21:12;7.55;;;1.40;;
56239;SDS011;42154;51.992;5.896;2022-12-29T08:23:37;6.30;;;1.30;;
56239;SDS011;42154;51.992;5.896;2022-12-29T08:26:04;5.63;;;1.25;;
56239;SDS011;42154;51.992;5.896;2022-12-29T08:28:31;11.00;;;1.50;;
56239;SDS011;42154;51.992;5.896;2022-12-29T08:30:58;6.60;;;1.35;;
56239;SDS011;42154;51.992;5.896;2022-12-29T08:33:25;5.97;;;1.00;;
56239;SDS011;42154;51.992;5.896;2022-12-29T08:35:52;5.88;;;1.40;;
56239;SDS011;42154;51.992;5.896;2022-12-29T08:38:17;5.05;;;1.02;;
56239;SDS011;42154;51.992;5.896;2022-12-29T08:40:43;8.60;;;1.38;;
56239;SDS011;42154;51.992;5.896;2022-12-29T08:43:09;7.47;;;1.80;;
56239;SDS011;42154;51.992;5.896;2022-12-29T08:45:35;6.07;;;1.17;;
56239;SDS011;42154;51.992;5.896;2022-12-29T08:48:01;6.20;;;1.52;;
56239;SDS011;42154;51.992;5.896;2022-12-29T08:50:26;8.18;;;1.30;;
56239;SDS011;42154;51.992;5.896;2022-12-29T08:52:52;4.65;;;1.23;;
56239;SDS011;42154;51.992;5.896;2022-12-29T08:55:18;7.10;;;1.30;;
56239;SDS011;42154;51.992;5.896;2022-12-29T08:57:45;5.55;;;1.25;;
56239;SDS011;42154;51.992;5.896;2022-12-29T09:00:20;10.48;;;1.75;;
56239;SDS011;42154;51.992;5.896;2022-12-29T09:02:46;7.43;;;1.40;;
56239;SDS011;42154;51.992;5.896;2022-12-29T09:05:11;7.35;;;1.20;;
56239;SDS011;42154;51.992;5.896;2022-12-29T09:07:37;6.57;;;1.55;;
56239;SDS011;42154;51.992;5.896;2022-12-29T09:10:03;8.05;;;1.55;;
56239;SDS011;42154;51.992;5.896;2022-12-29T09:12:29;7.18;;;1.60;;
56239;SDS011;42154;51.992;5.896;2022-12-29T09:14:55;5.93;;;1.40;;
56239;SDS011;42154;51.992;5.896;2022-12-29T09:17:21;7.43;;;1.40;;
56239;SDS011;42154;51.992;5.896;2022-12-29T09:20:05;8.07;;;1.77;;
56239;SDS011;42154;51.992;5.896;2022-12-29T09:22:31;7.45;;;1.38;;
56239;SDS011;42154;51.992;5.896;2022-12-29T09:24:57;8.77;;;1.80;;
56239;SDS011;42154;51.992;5.896;2022-12-29T09:27:23;9.07;;;2.25;;
56239;SDS011;42154;51.992;5.896;2022-12-29T09:29:49;8.70;;;1.98;;
56239;SDS011;42154;51.992;5.896;2022-12-29T09:32:14;11.88;;;2.03;;
56239;SDS011;42154;51.992;5.896;2022-12-29T09:34:40;6.97;;;1.60;;
56239;SDS011;42154;51.992;5.896;2022-12-29T09:37:06;8.52;;;1.65;;
56239;SDS011;42154;51.992;5.896;2022-12-29T09:39:31;9.13;;;1.55;;
56239;SDS011;42154;51.992;5.896;2022-12-29T09:42:08;6.90;;;1.45;;
56239;SDS011;42154;51.992;5.896;2022-12-29T09:47:47;6.95;;;1.50;;
56239;SDS011;42154;51.992;5.896;2022-12-29T09:50:20;9.70;;;1.88;;
56239;SDS011;42154;51.992;5.896;2022-12-29T09:55:39;9.75;;;1.65;;
56239;SDS011;42154;51.992;5.896;2022-12-29T09:58:20;5.38;;;1.63;;
56239;SDS011;42154;51.992;5.896;2022-12-29T10:01:06;9.95;;;1.67;;
56239;SDS011;42154;51.992;5.896;2022-12-29T10:03:52;7.88;;;1.55;;
56239;SDS011;42154;51.992;5.896;2022-12-29T10:06:56;8.95;;;1.77;;
56239;SDS011;42154;51.992;5.896;2022-12-29T10:20:49;9.38;;;1.20;;
56239;SDS011;42154;51.992;5.896;2022-12-29T10:25:47;11.80;;;2.15;;
56239;SDS011;42154;51.992;5.896;2022-12-29T10:28:21;7.45;;;1.10;;
56239;SDS011;42154;51.992;5.896;2022-12-29T10:30:48;7.03;;;1.65;;
56239;SDS011;42154;51.992;5.896;2022-12-29T10:33:17;9.60;;;1.95;;
56239;SDS011;42154;51.992;5.896;2022-12-29T10:35:48;8.32;;;1.70;;
56239;SDS011;42154;51.992;5.896;2022-12-29T10:38:20;8.77;;;2.03;;
56239;SDS011;42154;51.992;5.896;2022-12-29T10:43:30;6.28;;;1.50;;
56239;SDS011;42154;51.992;5.896;2022-12-29T10:46:04;6.60;;;1.58;;
56239;SDS011;42154;51.992;5.896;2022-12-29T10:48:35;5.78;;;1.55;;
56239;SDS011;42154;51.992;5.896;2022-12-29T10:51:02;5.60;;;1.55;;
56239;SDS011;42154;51.992;5.896;2022-12-29T10:53:42;6.13;;;1.60;;
56239;SDS011;42154;51.992;5.896;2022-12-29T10:56:15;10.23;;;1.50;;
56239;SDS011;42154;51.992;5.896;2022-12-29T11:07:24;8.75;;;1.98;;
56239;SDS011;42154;51.992;5.896;2022-12-29T11:09:51;8.52;;;2.08;;
56239;SDS011;42154;51.992;5.896;2022-12-29T11:17:44;8.88;;;2.20;;
56239;SDS011;42154;51.992;5.896;2022-12-29T11:23:02;13.80;;;3.00;;
56239;SDS011;42154;51.992;5.896;2022-12-29T11:25:31;8.73;;;2.85;;
56239;SDS011;42154;51.992;5.896;2022-12-29T11:30:26;8.40;;;2.20;;
56239;SDS011;42154;51.992;5.896;2022-12-29T11:32:54;10.45;;;2.72;;
56239;SDS011;42154;51.992;5.896;2022-12-29T11:35:38;7.85;;;3.00;;
56239;SDS011;42154;51.992;5.896;2022-12-29T11:38:14;10.93;;;2.60;;
56239;SDS011;42154;51.992;5.896;2022-12-29T11:40:45;12.50;;;3.08;;
56239;SDS011;42154;51.992;5.896;2022-12-29T11:43:24;11.40;;;3.53;;
56239;SDS011;42154;51.992;5.896;2022-12-29T11:45:56;9.82;;;3.08;;
56239;SDS011;42154;51.992;5.896;2022-12-29T11:48:22;10.50;;;3.20;;
56239;SDS011;42154;51.992;5.896;2022-12-29T11:50:52;13.60;;;3.58;;
56239;SDS011;42154;51.992;5.896;2022-12-29T11:53:21;10.90;;;2.90;;
56239;SDS011;42154;51.992;5.896;2022-12-29T11:55:56;14.45;;;3.60;;
56239;SDS011;42154;51.992;5.896;2022-12-29T11:58:30;10.85;;;3.50;;
56239;SDS011;42154;51.992;5.896;2022-12-29T12:03:28;7.28;;;2.47;;
56239;SDS011;42154;51.992;5.896;2022-12-29T12:06:03;12.20;;;3.38;;
56239;SDS011;42154;51.992;5.896;2022-12-29T12:08:33;10.43;;;3.13;;
56239;SDS011;42154;51.992;5.896;2022-12-29T12:11:04;11.85;;;3.60;;
56239;SDS011;42154;51.992;5.896;2022-12-29T12:16:37;12.05;;;3.42;;
56239;SDS011;42154;51.992;5.896;2022-12-29T12:22:07;14.13;;;3.63;;
56239;SDS011;42154;51.992;5.896;2022-12-29T12:24:48;14.38;;;4.35;;
56239;SDS011;42154;51.992;5.896;2022-12-29T12:27:22;14.65;;;3.55;;
56239;SDS011;42154;51.992;5.896;2022-12-29T12:30:20;10.65;;;3.72;;
56239;SDS011;42154;51.992;5.896;2022-12-29T12:41:09;10.32;;;3.33;;
56239;SDS011;42154;51.992;5.896;2022-12-29T12:43:51;10.65;;;3.92;;
56239;SDS011;42154;51.992;5.896;2022-12-29T12:51:51;12.93;;;3.72;;
56239;SDS011;42154;51.992;5.896;2022-12-29T13:02:44;14.20;;;3.88;;
56239;SDS011;42154;51.992;5.896;2022-12-29T13:11:01;12.52;;;4.05;;
56239;SDS011;42154;51.992;5.896;2022-12-29T13:14:05;11.00;;;3.30;;
56239;SDS011;42154;51.992;5.896;2022-12-29T13:25:26;10.32;;;3.60;;
56239;SDS011;42154;51.992;5.896;2022-12-29T13:28:00;13.75;;;4.13;;
56239;SDS011;42154;51.992;5.896;2022-12-29T13:30:38;7.10;;;2.95;;
56239;SDS011;42154;51.992;5.896;2022-12-29T13:36:14;11.95;;;3.50;;
56239;SDS011;42154;51.992;5.896;2022-12-29T13:38:50;12.60;;;3.55;;
56239;SDS011;42154;51.992;5.896;2022-12-29T13:41:30;15.93;;;3.42;;
56239;SDS011;42154;51.992;5.896;2022-12-29T13:44:00;11.88;;;3.25;;
56239;SDS011;42154;51.992;5.896;2022-12-29T13:46:29;11.85;;;3.10;;
56239;SDS011;42154;51.992;5.896;2022-12-29T13:49:08;10.30;;;3.25;;
56239;SDS011;42154;51.992;5.896;2022-12-29T13:51:36;12.65;;;3.30;;
56239;SDS011;42154;51.992;5.896;2022-12-29T13:54:27;13.32;;;2.92;;
56239;SDS011;42154;51.992;5.896;2022-12-29T14:00:12;14.20;;;3.45;;
56239;SDS011;42154;51.992;5.896;2022-12-29T14:07:43;9.27;;;2.45;;
56239;SDS011;42154;51.992;5.896;2022-12-29T14:13:03;9.63;;;2.65;;
56239;SDS011;42154;51.992;5.896;2022-12-29T14:15:31;9.40;;;2.80;;
56239;SDS011;42154;51.992;5.896;2022-12-29T14:18:09;11.15;;;3.25;;
56239;SDS011;42154;51.992;5.896;2022-12-29T14:20:36;5.25;;;2.40;;
56239;SDS011;42154;51.992;5.896;2022-12-29T14:25:53;6.03;;;2.03;;
56239;SDS011;42154;51.992;5.896;2022-12-29T14:28:23;2.50;;;1.20;;
56239;SDS011;42154;51.992;5.896;2022-12-29T14:30:55;3.22;;;1.10;;
56239;SDS011;42154;51.992;5.896;2022-12-29T14:33:22;5.15;;;1.08;;
56239;SDS011;42154;51.992;5.896;2022-12-29T14:35:51;3.25;;;1.25;;
56239;SDS011;42154;51.992;5.896;2022-12-29T14:38:18;3.95;;;1.55;;
56239;SDS011;42154;51.992;5.896;2022-12-29T14:40:47;4.88;;;1.63;;
56239;SDS011;42154;51.992;5.896;2022-12-29T14:43:16;4.80;;;1.65;;
56239;SDS011;42154;51.992;5.896;2022-12-29T14:45:59;6.60;;;2.80;;
56239;SDS011;42154;51.992;5.896;2022-12-29T14:48:30;7.22;;;2.17;;
56239;SDS011;42154;51.992;5.896;2022-12-29T14:51:16;4.75;;;1.80;;
56239;SDS011;42154;51.992;5.896;2022-12-29T14:54:17;21.65;;;15.20;;
56239;SDS011;42154;51.992;5.896;2022-12-29T14:57:21;7.07;;;3.35;;
56239;SDS011;42154;51.992;5.896;2022-12-29T15:00:05;6.40;;;1.95;;
56239;SDS011;42154;51.992;5.896;2022-12-29T15:02:33;4.38;;;1.60;;
56239;SDS011;42154;51.992;5.896;2022-12-29T15:05:03;5.55;;;2.05;;
56239;SDS011;42154;51.992;5.896;2022-12-29T15:07:31;5.70;;;2.10;;
56239;SDS011;42154;51.992;5.896;2022-12-29T15:10:06;5.38;;;2.05;;
56239;SDS011;42154;51.992;5.896;2022-12-29T15:12:41;5.20;;;1.77;;
56239;SDS011;42154;51.992;5.896;2022-12-29T15:15:23;5.65;;;2.00;;
56239;SDS011;42154;51.992;5.896;2022-12-29T15:17:54;3.40;;;1.50;;
56239;SDS011;42154;51.992;5.896;2022-12-29T15:20:28;8.23;;;2.15;;
56239;SDS011;42154;51.992;5.896;2022-12-29T15:23:00;12.43;;;2.40;;
56239;SDS011;42154;51.992;5.896;2022-12-29T15:25:31;8.00;;;2.45;;
56239;SDS011;42154;51.992;5.896;2022-12-29T15:28:01;9.25;;;1.98;;
56239;SDS011;42154;51.992;5.896;2022-12-29T15:30:29;10.30;;;2.78;;
56239;SDS011;42154;51.992;5.896;2022-12-29T15:32:55;7.93;;;1.92;;
56239;SDS011;42154;51.992;5.896;2022-12-29T15:35:32;5.82;;;1.80;;
56239;SDS011;42154;51.992;5.896;2022-12-29T15:38:00;7.25;;;2.25;;
56239;SDS011;42154;51.992;5.896;2022-12-29T15:40:37;8.43;;;2.65;;
56239;SDS011;42154;51.992;5.896;2022-12-29T15:43:07;6.60;;;2.30;;
56239;SDS011;42154;51.992;5.896;2022-12-29T15:45:36;7.15;;;1.70;;
56239;SDS011;42154;51.992;5.896;2022-12-29T15:48:03;10.23;;;3.47;;
56239;SDS011;42154;51.992;5.896;2022-12-29T15:50:33;8.02;;;2.05;;
56239;SDS011;42154;51.992;5.896;2022-12-29T15:53:02;7.93;;;2.85;;
56239;SDS011;42154;51.992;5.896;2022-12-29T15:55:38;11.73;;;2.47;;
56239;SDS011;42154;51.992;5.896;2022-12-29T15:58:28;9.10;;;2.45;;
56239;SDS011;42154;51.992;5.896;2022-12-29T16:00:55;7.47;;;2.10;;
56239;SDS011;42154;51.992;5.896;2022-12-29T16:03:32;7.43;;;2.08;;
56239;SDS011;42154;51.992;5.896;2022-12-29T16:06:08;12.65;;;2.05;;
56239;SDS011;42154;51.992;5.896;2022-12-29T16:08:55;4.70;;;1.63;;
56239;SDS011;42154;51.992;5.896;2022-12-29T16:11:23;6.78;;;2.30;;
56239;SDS011;42154;51.992;5.896;2022-12-29T16:14:00;8.70;;;2.05;;
56239;SDS011;42154;51.992;5.896;2022-12-29T16:16:29;8.77;;;2.20;;
56239;SDS011;42154;51.992;5.896;2022-12-29T16:21:49;5.00;;;1.83;;
56239;SDS011;42154;51.992;5.896;2022-12-29T16:24:16;6.57;;;2.05;;
56239;SDS011;42154;51.992;5.896;2022-12-29T16:26:48;10.18;;;2.63;;
56239;SDS011;42154;51.992;5.896;2022-12-29T16:29:16;7.55;;;2.50;;
56239;SDS011;42154;51.992;5.896;2022-12-29T16:31:49;8.30;;;2.03;;
56239;SDS011;42154;51.992;5.896;2022-12-29T16:39:41;3.93;;;1.20;;
56239;SDS011;42154;51.992;5.896;2022-12-29T16:47:47;10.90;;;2.28;;
56239;SDS011;42154;51.992;5.896;2022-12-29T16:50:17;7.80;;;2.20;;
56239;SDS011;42154;51.992;5.896;2022-12-29T16:52:49;5.47;;;2.20;;
56239;SDS011;42154;51.992;5.896;2022-12-29T16:55:16;7.13;;;2.10;;
56239;SDS011;42154;51.992;5.896;2022-12-29T16:57:43;6.10;;;1.70;;
56239;SDS011;42154;51.992;5.896;2022-12-29T17:00:19;7.63;;;2.03;;
56239;SDS011;42154;51.992;5.896;2022-12-29T17:02:47;5.80;;;2.15;;
56239;SDS011;42154;51.992;5.896;2022-12-29T17:05:15;8.13;;;2.30;;
56239;SDS011;42154;51.992;5.896;2022-12-29T17:07:42;10.00;;;2.65;;
56239;SDS011;42154;51.992;5.896;2022-12-29T17:10:09;6.55;;;2.22;;
56239;SDS011;42154;51.992;5.896;2022-12-29T17:12:37;5.97;;;2.20;;
56239;SDS011;42154;51.992;5.896;2022-12-29T17:15:04;8.90;;;4.13;;
56239;SDS011;42154;51.992;5.896;2022-12-29T17:20:16;7.57;;;2.95;;
56239;SDS011;42154;51.992;5.896;2022-12-29T17:23:00;10.82;;;3.75;;
56239;SDS011;42154;51.992;5.896;2022-12-29T17:25:28;16.88;;;7.00;;
56239;SDS011;42154;51.992;5.896;2022-12-29T17:30:26;9.10;;;3.00;;
56239;SDS011;42154;51.992;5.896;2022-12-29T17:33:03;10.57;;;3.58;;
56239;SDS011;42154;51.992;5.896;2022-12-29T17:35:32;9.02;;;2.40;;
56239;SDS011;42154;51.992;5.896;2022-12-29T17:37:58;11.25;;;2.90;;
56239;SDS011;42154;51.992;5.896;2022-12-29T17:40:28;11.95;;;3.33;;
56239;SDS011;42154;51.992;5.896;2022-12-29T17:42:58;7.50;;;4.03;;
56239;SDS011;42154;51.992;5.896;2022-12-29T17:45:30;7.53;;;3.90;;
56239;SDS011;42154;51.992;5.896;2022-12-29T17:47:57;7.80;;;2.90;;
56239;SDS011;42154;51.992;5.896;2022-12-29T17:50:26;9.93;;;3.55;;
56239;SDS011;42154;51.992;5.896;2022-12-29T17:52:55;6.45;;;1.70;;
56239;SDS011;42154;51.992;5.896;2022-12-29T17:55:23;5.90;;;2.28;;
56239;SDS011;42154;51.992;5.896;2022-12-29T17:57:50;7.80;;;2.65;;
56239;SDS011;42154;51.992;5.896;2022-12-29T18:00:17;11.63;;;3.55;;
56239;SDS011;42154;51.992;5.896;2022-12-29T18:02:48;10.50;;;3.05;;
56239;SDS011;42154;51.992;5.896;2022-12-29T18:05:32;10.20;;;4.35;;